createdAt,value
2018-06-17T00:01:27.918Z,6.90
2018-06-17T00:03:59.233Z,5.80
2018-06-17T00:06:29.226Z,6.53
2018-06-17T00:08:58.790Z,6.00
2018-06-17T00:11:28.944Z,5.57
2018-06-17T00:13:58.364Z,5.73
2018-06-17T00:16:27.715Z,6.63
2018-06-17T00:18:57.078Z,6.03
2018-06-17T00:21:31.740Z,6.30
2018-06-17T00:24:13.189Z,5.50
2018-06-17T00:26:46.028Z,5.90
2018-06-17T00:29:20.912Z,6.13
2018-06-17T00:31:50.327Z,5.63
2018-06-17T00:34:19.611Z,5.80
2018-06-17T00:36:54.994Z,5.40
2018-06-17T00:39:29.689Z,4.90
2018-06-17T00:42:01.934Z,5.27
2018-06-17T00:44:31.373Z,5.10
2018-06-17T00:47:00.761Z,5.30
2018-06-17T00:49:30.043Z,4.87
2018-06-17T00:51:59.406Z,5.57
2018-06-17T00:54:29.830Z,4.63
2018-06-17T00:57:17.138Z,4.77
2018-06-17T00:59:46.455Z,4.63
2018-06-17T01:02:15.881Z,4.47
2018-06-17T01:04:45.192Z,4.57
2018-06-17T01:07:14.590Z,4.40
2018-06-17T01:09:43.897Z,4.33
2018-06-17T01:12:13.300Z,4.50
2018-06-17T01:14:42.585Z,4.13
2018-06-17T01:17:11.910Z,4.60
2018-06-17T01:19:41.309Z,4.13
2018-06-17T01:22:10.904Z,3.90
2018-06-17T01:24:40.165Z,3.97
2018-06-17T01:27:09.462Z,4.30
2018-06-17T01:29:38.784Z,4.17
2018-06-17T01:32:08.375Z,4.50
2018-06-17T01:34:37.515Z,4.23
2018-06-17T01:37:07.120Z,4.80
2018-06-17T01:39:36.520Z,4.20
2018-06-17T01:42:05.937Z,5.20
2018-06-17T01:44:35.457Z,5.80
2018-06-17T01:47:04.984Z,6.67
2018-06-17T01:49:34.442Z,6.07
2018-06-17T01:52:03.963Z,7.43
2018-06-17T01:54:33.552Z,7.53
2018-06-17T01:57:02.682Z,8.23
2018-06-17T01:59:32.050Z,8.90
2018-06-17T02:02:02.669Z,8.70
2018-06-17T02:04:37.362Z,8.60
2018-06-17T02:07:11.908Z,9.47
2018-06-17T02:09:46.617Z,10.73
2018-06-17T02:12:18.131Z,13.80
2018-06-17T02:14:52.555Z,8.57
2018-06-17T02:17:23.011Z,6.53
2018-06-17T02:19:53.028Z,5.83
2018-06-17T02:22:22.533Z,5.30
2018-06-17T02:24:51.865Z,5.60
2018-06-17T02:27:21.444Z,5.23
2018-06-17T02:29:50.741Z,5.63
2018-06-17T02:32:20.033Z,4.97
2018-06-17T02:34:49.411Z,5.43
2018-06-17T02:37:18.721Z,4.77
2018-06-17T02:39:48.016Z,5.10
2018-06-17T02:42:17.371Z,5.07
2018-06-17T02:44:50.862Z,5.40
2018-06-17T02:47:25.266Z,5.00
2018-06-17T02:49:54.634Z,4.80
2018-06-17T02:52:29.430Z,5.57
2018-06-17T02:54:58.739Z,5.43
2018-06-17T02:57:28.191Z,5.20
2018-06-17T02:59:57.305Z,4.33
2018-06-17T03:02:26.819Z,4.73
2018-06-17T03:04:56.115Z,4.57
2018-06-17T03:07:25.463Z,4.33
2018-06-17T03:09:54.803Z,4.97
2018-06-17T03:12:24.052Z,4.57
2018-06-17T03:14:53.315Z,4.03
2018-06-17T03:17:22.616Z,4.50
2018-06-17T03:19:52.074Z,4.37
2018-06-17T03:22:21.349Z,4.17
2018-06-17T03:24:56.195Z,4.20
2018-06-17T03:27:30.932Z,4.47
2018-06-17T03:30:05.564Z,4.10
2018-06-17T03:32:40.071Z,3.97
2018-06-17T03:35:14.463Z,4.50
2018-06-17T03:37:43.794Z,4.70
2018-06-17T03:40:13.130Z,4.77
2018-06-17T03:42:42.449Z,5.03
2018-06-17T03:45:11.755Z,4.43
2018-06-17T03:47:40.853Z,4.27
2018-06-17T03:50:10.240Z,4.07
2018-06-17T03:52:39.652Z,3.70
2018-06-17T03:55:09.097Z,3.63
2018-06-17T03:57:38.507Z,3.63
2018-06-17T04:00:07.958Z,3.67
2018-06-17T04:02:37.347Z,4.03
2018-06-17T04:05:11.950Z,3.73
2018-06-17T04:07:41.398Z,3.70
2018-06-17T04:10:11.808Z,3.83
2018-06-17T04:12:41.209Z,3.73
2018-06-17T04:15:10.539Z,3.60
2018-06-17T04:17:39.969Z,3.87
2018-06-17T04:20:09.334Z,3.97
2018-06-17T04:22:38.633Z,3.47
2018-06-17T04:25:08.020Z,3.57
2018-06-17T04:27:37.481Z,3.03
2018-06-17T04:30:06.952Z,3.63
2018-06-17T04:32:36.327Z,3.50
2018-06-17T04:35:05.719Z,3.73
2018-06-17T04:37:35.162Z,3.97
2018-06-17T04:40:04.605Z,3.80
2018-06-17T04:42:33.957Z,4.13
2018-06-17T04:45:03.329Z,3.83
2018-06-17T04:47:32.749Z,4.17
2018-06-17T04:50:02.061Z,3.83
2018-06-17T04:52:31.369Z,3.00
2018-06-17T04:55:00.683Z,3.53
2018-06-17T04:57:29.992Z,3.23
2018-06-17T04:59:59.360Z,3.63
2018-06-17T05:02:28.584Z,2.93
2018-06-17T05:04:57.885Z,3.43
2018-06-17T05:07:27.180Z,3.30
2018-06-17T05:09:56.638Z,3.60
2018-06-17T05:12:25.998Z,3.53
2018-06-17T05:14:55.285Z,3.50
2018-06-17T05:17:24.659Z,3.27
2018-06-17T05:19:54.186Z,3.17
2018-06-17T05:22:23.604Z,3.40
2018-06-17T05:24:53.165Z,4.60
2018-06-17T05:27:22.507Z,3.20
2018-06-17T05:29:51.920Z,3.47
2018-06-17T05:32:21.246Z,3.30
2018-06-17T05:34:50.560Z,3.10
2018-06-17T05:37:19.916Z,3.13
2018-06-17T05:39:49.261Z,3.33
2018-06-17T05:42:18.664Z,3.30
2018-06-17T05:44:48.010Z,3.30
2018-06-17T05:47:17.307Z,3.40
2018-06-17T05:49:46.420Z,3.37
2018-06-17T05:52:15.537Z,3.57
2018-06-17T05:54:44.942Z,3.80
2018-06-17T05:57:14.303Z,3.20
2018-06-17T05:59:43.756Z,2.97
2018-06-17T06:02:13.275Z,3.17
2018-06-17T06:04:42.615Z,3.00
2018-06-17T06:07:12.018Z,2.87
2018-06-17T06:09:41.406Z,2.73
2018-06-17T06:12:10.851Z,3.00
2018-06-17T06:14:40.317Z,2.80
2018-06-17T06:17:09.695Z,2.87
2018-06-17T06:19:39.023Z,3.10
2018-06-17T06:22:09.514Z,2.77
2018-06-17T06:24:38.853Z,2.40
2018-06-17T06:27:08.378Z,2.73
2018-06-17T06:29:37.772Z,2.63
2018-06-17T06:32:07.376Z,3.07
2018-06-17T06:34:36.787Z,2.70
2018-06-17T06:37:06.335Z,2.67
2018-06-17T06:39:35.637Z,2.80
2018-06-17T06:42:05.059Z,2.60
2018-06-17T06:44:34.424Z,2.90
2018-06-17T06:47:03.955Z,2.97
2018-06-17T06:49:33.381Z,3.20
2018-06-17T06:52:03.883Z,3.00
2018-06-17T06:54:33.319Z,2.77
2018-06-17T06:57:02.664Z,3.30
2018-06-17T06:59:32.037Z,3.57
2018-06-17T07:02:18.325Z,3.57
2018-06-17T07:05:04.560Z,3.33
2018-06-17T07:07:51.009Z,4.03
2018-06-17T07:10:26.761Z,4.10
2018-06-17T07:12:56.145Z,3.27
2018-06-17T07:15:42.346Z,3.20
2018-06-17T07:18:37.000Z,3.00
2018-06-17T07:21:07.098Z,3.13
2018-06-17T07:23:36.656Z,2.70
2018-06-17T07:26:37.177Z,3.20
2018-06-17T07:29:24.830Z,2.90
2018-06-17T07:31:54.136Z,2.93
2018-06-17T07:34:23.439Z,2.60
2018-06-17T07:36:52.820Z,2.30
2018-06-17T07:40:47.902Z,3.00
2018-06-17T07:43:17.426Z,3.47
2018-06-17T07:45:46.794Z,3.90
2018-06-17T07:50:37.281Z,2.90
2018-06-17T07:53:16.662Z,2.70
2018-06-17T07:55:46.445Z,2.83
2018-06-17T07:58:16.283Z,3.57
2018-06-17T08:00:45.636Z,3.70
2018-06-17T08:03:15.020Z,3.40
2018-06-17T08:05:44.429Z,3.70
2018-06-17T08:08:13.697Z,3.03
2018-06-17T08:10:43.048Z,3.00
2018-06-17T08:13:12.323Z,3.20
2018-06-17T08:15:41.666Z,3.57
2018-06-17T08:18:11.070Z,3.10
2018-06-17T08:20:40.463Z,3.33
2018-06-17T08:23:09.853Z,2.60
2018-06-17T08:25:39.337Z,2.50
2018-06-17T08:28:08.720Z,2.40
2018-06-17T08:30:38.290Z,2.63
2018-06-17T08:33:07.698Z,2.93
2018-06-17T08:35:37.085Z,2.80
2018-06-17T08:38:06.445Z,2.50
2018-06-17T08:40:35.904Z,2.70
2018-06-17T08:43:05.314Z,2.57
2018-06-17T08:45:34.679Z,3.17
2018-06-17T08:48:04.055Z,2.57
2018-06-17T08:50:33.445Z,3.07
2018-06-17T08:53:02.871Z,3.23
2018-06-17T08:55:32.204Z,2.77
2018-06-17T08:58:01.506Z,2.87
2018-06-17T09:00:30.871Z,3.00
2018-06-17T09:03:09.015Z,2.57
2018-06-17T09:05:40.749Z,3.00
2018-06-17T09:08:10.221Z,3.50
2018-06-17T09:10:39.728Z,3.27
2018-06-17T09:13:11.218Z,3.27
2018-06-17T09:15:43.263Z,3.27
2018-06-17T09:18:16.082Z,3.17
2018-06-17T09:20:46.412Z,3.00
2018-06-17T09:23:19.688Z,3.03
2018-06-17T09:25:49.211Z,2.93
2018-06-17T09:28:23.586Z,3.17
2018-06-17T09:30:54.717Z,2.77
2018-06-17T09:33:29.360Z,2.70
2018-06-17T09:36:00.804Z,2.30
2018-06-17T09:38:30.128Z,2.60
2018-06-17T09:40:59.435Z,2.50
2018-06-17T09:43:28.728Z,2.30
2018-06-17T09:45:58.085Z,2.63
2018-06-17T09:48:27.385Z,2.67
2018-06-17T09:50:56.782Z,3.13
2018-06-17T09:53:26.047Z,2.60
2018-06-17T09:55:55.391Z,2.40
2018-06-17T09:58:24.745Z,2.70
2018-06-17T10:00:54.051Z,2.60
2018-06-17T10:03:23.085Z,2.60
2018-06-17T10:05:52.417Z,2.70
2018-06-17T10:08:21.746Z,2.23
2018-06-17T10:10:56.713Z,2.90
2018-06-17T10:13:27.333Z,2.63
2018-06-17T10:15:56.716Z,2.90
2018-06-17T10:18:26.238Z,2.40
2018-06-17T10:20:55.560Z,2.63
2018-06-17T10:23:25.029Z,2.30
2018-06-17T10:25:58.259Z,2.23
2018-06-17T10:28:28.513Z,2.50
2018-06-17T10:30:58.961Z,2.30
2018-06-17T10:33:28.266Z,2.37
2018-06-17T10:35:57.903Z,2.30
2018-06-17T10:38:31.560Z,2.30
2018-06-17T10:41:03.065Z,2.40
2018-06-17T10:43:35.800Z,2.63
2018-06-17T10:46:05.126Z,2.20
2018-06-17T10:48:37.209Z,2.77
2018-06-17T10:51:08.847Z,2.33
2018-06-17T10:53:38.445Z,2.47
2018-06-17T10:56:08.059Z,2.60
2018-06-17T10:58:40.974Z,2.50
2018-06-17T11:01:10.490Z,2.20
2018-06-17T11:03:39.780Z,2.47
2018-06-17T11:06:09.216Z,2.63
2018-06-17T11:08:38.619Z,2.40
2018-06-17T11:11:12.217Z,2.50
2018-06-17T11:13:41.797Z,2.00
2018-06-17T11:16:11.075Z,2.77
2018-06-17T11:18:40.199Z,2.33
2018-06-17T11:21:09.531Z,2.30
2018-06-17T11:23:39.090Z,2.60
2018-06-17T11:26:08.832Z,2.30
2018-06-17T11:28:45.364Z,2.50
2018-06-17T11:31:18.162Z,2.40
2018-06-17T11:33:51.376Z,2.23
2018-06-17T11:36:21.035Z,2.50
2018-06-17T11:38:51.095Z,2.13
2018-06-17T11:41:20.439Z,2.30
2018-06-17T11:43:50.861Z,2.33
2018-06-17T11:46:21.310Z,2.40
2018-06-17T11:48:52.751Z,3.23
2018-06-17T11:51:22.226Z,2.33
2018-06-17T11:53:58.145Z,2.30
2018-06-17T11:56:28.509Z,2.53
2018-06-17T11:58:57.890Z,2.70
2018-06-17T12:01:27.308Z,2.70
2018-06-17T12:03:56.686Z,2.33
2018-06-17T12:06:26.079Z,2.73
2018-06-17T12:09:05.874Z,2.47
2018-06-17T12:11:36.130Z,2.27
2018-06-17T12:14:05.734Z,2.70
2018-06-17T12:16:40.318Z,2.67
2018-06-17T12:19:15.148Z,3.00
2018-06-17T12:21:45.216Z,2.53
2018-06-17T12:24:14.499Z,2.30
2018-06-17T12:26:43.791Z,2.50
2018-06-17T12:29:12.995Z,2.40
2018-06-17T12:31:42.326Z,2.47
2018-06-17T12:34:16.273Z,1.90
2018-06-17T12:36:45.703Z,2.80
2018-06-17T12:39:15.112Z,2.13
2018-06-17T12:41:44.396Z,2.60
2018-06-17T12:44:13.719Z,2.23
2018-06-17T12:46:43.033Z,2.50
2018-06-17T12:49:12.374Z,2.77
2018-06-17T12:51:41.834Z,2.37
2018-06-17T12:54:15.780Z,2.20
2018-06-17T12:56:45.236Z,2.27
2018-06-17T12:59:14.939Z,2.37
2018-06-17T13:01:46.596Z,2.23
2018-06-17T13:04:15.913Z,2.43
2018-06-17T13:06:45.203Z,2.10
2018-06-17T13:09:14.504Z,2.10
2018-06-17T13:11:43.793Z,2.73
2018-06-17T13:14:13.206Z,3.13
2018-06-17T13:16:42.608Z,2.53
2018-06-17T13:19:12.124Z,2.33
2018-06-17T13:21:41.470Z,1.93
2018-06-17T13:24:10.813Z,1.90
2018-06-17T13:26:40.325Z,2.20
2018-06-17T13:29:09.730Z,2.07
2018-06-17T13:31:40.214Z,2.23
2018-06-17T13:34:09.597Z,2.10
2018-06-17T13:36:38.979Z,2.30
2018-06-17T13:39:12.244Z,2.00
2018-06-17T13:41:41.831Z,2.40
2018-06-17T13:44:11.401Z,2.10
2018-06-17T13:46:40.746Z,1.67
2018-06-17T13:49:10.131Z,1.93
2018-06-17T13:51:39.578Z,1.70
2018-06-17T13:54:08.902Z,1.60
2018-06-17T13:56:42.309Z,1.93
2018-06-17T13:59:11.597Z,2.30
2018-06-17T14:01:40.888Z,2.10
2018-06-17T14:04:10.249Z,2.27
2018-06-17T14:06:39.655Z,1.80
2018-06-17T14:09:10.105Z,1.90
2018-06-17T14:11:39.409Z,2.20
2018-06-17T14:14:08.821Z,1.80
2018-06-17T14:16:38.217Z,1.70
2018-06-17T14:19:07.681Z,1.70
2018-06-17T14:21:37.236Z,1.83
2018-06-17T14:24:06.880Z,2.00
2018-06-17T14:26:36.285Z,1.70
2018-06-17T14:29:05.877Z,1.97
2018-06-17T14:31:36.954Z,2.00
2018-06-17T14:34:08.854Z,1.83
2018-06-17T14:36:42.207Z,2.23
2018-06-17T14:39:13.098Z,2.00
2018-06-17T14:41:50.560Z,2.00
2018-06-17T14:44:27.146Z,1.73
2018-06-17T14:47:59.714Z,2.30
2018-06-17T14:50:34.387Z,1.53
2018-06-17T14:53:04.989Z,1.87
2018-06-17T14:55:34.504Z,1.97
2018-06-17T14:58:04.156Z,2.10
2018-06-17T15:00:33.606Z,2.30
2018-06-17T15:03:03.494Z,3.67
2018-06-17T15:05:32.933Z,1.93
2018-06-17T15:08:02.296Z,1.70
2018-06-17T15:10:31.605Z,1.93
2018-06-17T15:13:00.856Z,1.70
2018-06-17T15:15:30.183Z,1.83
2018-06-17T15:17:59.646Z,1.80
2018-06-17T15:20:28.929Z,1.83
2018-06-17T15:22:58.321Z,1.40
2018-06-17T15:25:27.682Z,1.90
2018-06-17T15:27:57.150Z,1.60
2018-06-17T15:30:26.450Z,2.50
2018-06-17T15:33:01.158Z,1.80
2018-06-17T15:37:43.635Z,1.80
2018-06-17T15:40:12.958Z,2.10
2018-06-17T15:42:42.286Z,2.10
2018-06-17T15:45:11.619Z,1.90
2018-06-17T15:47:41.065Z,2.23
2018-06-17T15:50:10.404Z,2.07
2018-06-17T15:52:39.812Z,1.80
2018-06-17T15:55:09.226Z,1.70
2018-06-17T15:57:38.664Z,2.30
2018-06-17T16:00:08.155Z,1.93
2018-06-17T16:02:38.157Z,2.03
2018-06-17T16:05:07.730Z,1.83
2018-06-17T16:07:37.185Z,2.30
2018-06-17T16:10:06.771Z,2.30
2018-06-17T16:12:41.500Z,4.17
2018-06-17T16:15:16.021Z,2.70
2018-06-17T16:17:50.688Z,2.57
2018-06-17T16:20:25.118Z,2.10
2018-06-17T16:22:54.407Z,2.47
2018-06-17T16:25:23.675Z,2.10
2018-06-17T16:27:53.160Z,2.47
2018-06-17T16:30:22.574Z,1.93
2018-06-17T16:32:52.077Z,2.17
2018-06-17T16:35:21.157Z,2.30
2018-06-17T16:37:50.590Z,2.20
2018-06-17T16:40:19.962Z,2.40
2018-06-17T16:42:50.016Z,2.40
2018-06-17T16:45:19.398Z,2.50
2018-06-17T16:47:48.689Z,2.60
2018-06-17T16:50:18.014Z,2.03
2018-06-17T16:52:52.425Z,2.50
2018-06-17T16:57:31.960Z,2.40
2018-06-17T17:00:07.866Z,2.20
2018-06-17T17:02:38.221Z,2.30
2018-06-17T17:05:07.835Z,2.10
2018-06-17T17:07:37.431Z,2.33
2018-06-17T17:10:07.115Z,2.27
2018-06-17T17:12:36.886Z,2.80
2018-06-17T17:15:09.195Z,2.40
2018-06-17T17:17:38.782Z,2.40
2018-06-17T17:20:08.360Z,2.30
2018-06-17T17:22:37.722Z,2.50
2018-06-17T17:25:07.476Z,2.60
2018-06-17T17:27:36.999Z,3.13
2018-06-17T17:30:08.440Z,2.10
2018-06-17T17:32:45.624Z,3.20
2018-06-17T17:35:20.926Z,2.00
2018-06-17T17:37:56.066Z,2.10
2018-06-17T17:40:30.951Z,2.30
2018-06-17T17:43:02.357Z,2.97
2018-06-17T17:45:39.949Z,2.50
2018-06-17T17:48:13.461Z,2.60
2018-06-17T17:50:43.150Z,2.40
2018-06-17T17:53:17.635Z,2.20
2018-06-17T17:55:47.000Z,2.10
2018-06-17T17:58:16.330Z,2.57
2018-06-17T18:00:45.725Z,3.77
2018-06-17T18:03:15.029Z,2.90
2018-06-17T18:05:44.452Z,2.40
2018-06-17T18:08:13.762Z,1.80
2018-06-17T18:10:43.061Z,2.27
2018-06-17T18:13:30.691Z,2.70
2018-06-17T18:15:59.996Z,2.23
2018-06-17T18:18:29.364Z,2.20
2018-06-17T18:20:58.682Z,2.20
2018-06-17T18:23:28.058Z,2.57
2018-06-17T18:26:02.814Z,2.50
2018-06-17T18:28:37.287Z,2.37
2018-06-17T18:31:07.118Z,2.23
2018-06-17T18:33:41.807Z,2.13
2018-06-17T18:36:15.478Z,2.67
2018-06-17T18:38:46.083Z,2.80
2018-06-17T18:41:16.008Z,2.30
2018-06-17T18:43:46.523Z,2.43
2018-06-17T18:46:16.992Z,2.50
2018-06-17T18:48:47.079Z,2.30
2018-06-17T18:51:18.840Z,2.43
2018-06-17T18:53:51.721Z,2.30
2018-06-17T18:56:21.112Z,2.20
2018-06-17T18:58:50.437Z,2.13
2018-06-17T19:01:20.866Z,2.70
2018-06-17T19:03:53.387Z,2.00
2018-06-17T19:06:23.877Z,2.60
2018-06-17T19:08:59.035Z,2.63
2018-06-17T19:11:35.894Z,2.37
2018-06-17T19:14:15.564Z,2.60
2018-06-17T19:16:53.160Z,3.20
2018-06-17T19:19:24.045Z,2.57
2018-06-17T19:21:54.291Z,2.90
2018-06-17T19:24:23.926Z,3.23
2018-06-17T19:26:53.976Z,2.83
2018-06-17T19:29:23.592Z,3.30
2018-06-17T19:31:52.923Z,2.90
2018-06-17T19:34:22.213Z,3.53
2018-06-17T19:36:51.638Z,3.13
2018-06-17T19:39:21.264Z,3.70
2018-06-17T19:41:50.657Z,3.10
2018-06-17T19:44:20.362Z,2.77
2018-06-17T19:46:49.725Z,2.97
2018-06-17T19:49:19.130Z,3.47
2018-06-17T19:51:53.850Z,2.80
2018-06-17T19:54:28.487Z,2.97
2018-06-17T19:57:03.088Z,3.67
2018-06-17T19:59:38.880Z,2.70
2018-06-17T20:02:09.076Z,5.93
2018-06-17T20:04:40.010Z,2.83
2018-06-17T20:07:10.494Z,2.67
2018-06-17T20:09:42.428Z,2.20
2018-06-17T20:12:15.113Z,2.60
2018-06-17T20:14:44.491Z,2.70
2018-06-17T20:17:13.765Z,2.53
2018-06-17T20:19:43.154Z,2.70
2018-06-17T20:22:12.500Z,3.27
2018-06-17T20:24:41.871Z,2.77
2018-06-17T20:27:11.096Z,3.50
2018-06-17T20:29:40.554Z,2.90
2018-06-17T20:32:15.303Z,2.90
2018-06-17T20:35:49.544Z,2.57
2018-06-17T20:38:24.314Z,3.23
2018-06-17T20:40:58.738Z,3.40
2018-06-17T20:43:33.144Z,2.90
2018-06-17T20:46:02.451Z,2.83
2018-06-17T20:48:31.950Z,3.57
2018-06-17T20:51:01.258Z,3.30
2018-06-17T20:53:30.851Z,3.73
2018-06-17T20:56:03.447Z,2.97
2018-06-17T20:58:32.787Z,4.17
2018-06-17T21:01:02.159Z,3.03
2018-06-17T21:03:32.388Z,3.90
2018-06-17T21:06:01.768Z,3.17
2018-06-17T21:08:31.116Z,4.30
2018-06-17T21:11:00.445Z,3.50
2018-06-17T21:13:29.642Z,3.17
2018-06-17T21:16:00.148Z,3.03
2018-06-17T21:18:36.149Z,3.00
2018-06-17T21:21:14.690Z,3.63
2018-06-17T21:23:49.662Z,2.50
2018-06-17T21:26:26.367Z,2.70
2018-06-17T21:29:04.716Z,2.70
2018-06-17T21:31:48.651Z,2.73
2018-06-17T21:34:23.081Z,2.83
2018-06-17T21:36:52.418Z,2.40
2018-06-17T21:39:21.849Z,2.53
2018-06-17T21:44:33.355Z,2.60
2018-06-17T21:47:04.880Z,2.60
2018-06-17T21:49:34.596Z,2.73
2018-06-17T21:52:04.171Z,2.97
2018-06-17T21:54:33.962Z,3.20
2018-06-17T21:57:23.072Z,2.90
2018-06-17T21:59:52.753Z,3.17
2018-06-17T22:02:22.340Z,3.00
2018-06-17T22:04:51.779Z,2.80
2018-06-17T22:07:25.456Z,3.10
2018-06-17T22:09:59.992Z,2.70
2018-06-17T22:12:34.583Z,3.00
2018-06-17T22:15:09.446Z,2.70
2018-06-17T22:17:45.019Z,2.70
2018-06-17T22:20:14.691Z,2.97
2018-06-17T22:22:44.079Z,3.00
2018-06-17T22:25:13.719Z,2.67
2018-06-17T22:27:43.616Z,2.60
2018-06-17T22:30:16.711Z,3.00
2018-06-17T22:32:47.931Z,2.93
2018-06-17T22:35:18.516Z,2.57
2018-06-17T22:37:48.042Z,2.63
2018-06-17T22:40:41.953Z,2.90
2018-06-17T22:43:11.349Z,3.00
2018-06-17T22:45:40.873Z,2.73
2018-06-17T22:48:10.211Z,2.50
2018-06-17T22:50:39.550Z,2.77
2018-06-17T22:53:20.928Z,2.70
2018-06-17T22:55:50.284Z,2.37
2018-06-17T22:58:25.079Z,3.17
2018-06-17T23:01:02.286Z,2.30
2018-06-17T23:03:36.811Z,2.63
2018-06-17T23:06:11.438Z,2.53
2018-06-17T23:08:47.623Z,2.30
2018-06-17T23:11:26.464Z,2.50
2018-06-17T23:13:56.631Z,2.53
2018-06-17T23:16:37.333Z,2.97
2018-06-17T23:19:07.614Z,2.30
2018-06-17T23:21:37.069Z,2.53
2018-06-17T23:24:06.520Z,2.50
2018-06-17T23:26:35.982Z,1.90
2018-06-17T23:29:05.422Z,2.50
2018-06-17T23:31:35.691Z,2.10
2018-06-17T23:34:05.155Z,2.30
2018-06-17T23:36:34.645Z,2.30
2018-06-17T23:39:10.616Z,2.50
2018-06-17T23:41:41.684Z,2.53
2018-06-17T23:44:16.509Z,2.70
2018-06-17T23:46:56.479Z,2.40
2018-06-17T23:49:31.139Z,2.20
2018-06-17T23:52:05.794Z,2.20
2018-06-17T23:54:40.350Z,2.60
2018-06-17T23:57:09.786Z,2.17
2018-06-17T23:59:39.203Z,2.20
